sensor_id;sensor_type;location;lat;lon;timestamp;P1;durP1;ratioP1;P2;durP2;ratioP2
12005;SDS011;6062;47.294;12.182;2023-03-08T00:01:02;14.83;;;7.10;;
12005;SDS011;6062;47.294;12.182;2023-03-08T00:03:37;13.43;;;7.90;;
12005;SDS011;6062;47.294;12.182;2023-03-08T00:06:04;16.07;;;8.87;;
12005;SDS011;6062;47.294;12.182;2023-03-08T00:08:36;13.77;;;7.87;;
12005;SDS011;6062;47.294;12.182;2023-03-08T00:11:06;15.93;;;9.17;;
12005;SDS011;6062;47.294;12.182;2023-03-08T00:13:34;14.63;;;8.43;;
12005;SDS011;6062;47.294;12.182;2023-03-08T00:16:03;15.03;;;8.27;;
12005;SDS011;6062;47.294;12.182;2023-03-08T00:18:32;14.87;;;8.83;;
12005;SDS011;6062;47.294;12.182;2023-03-08T00:21:00;16.57;;;7.77;;
12005;SDS011;6062;47.294;12.182;2023-03-08T00:23:29;14.07;;;7.33;;
12005;SDS011;6062;47.294;12.182;2023-03-08T00:25:55;14.23;;;8.53;;
12005;SDS011;6062;47.294;12.182;2023-03-08T00:28:20;14.97;;;8.40;;
12005;SDS011;6062;47.294;12.182;2023-03-08T00:30:54;15.00;;;8.60;;
12005;SDS011;6062;47.294;12.182;2023-03-08T00:33:42;14.37;;;8.30;;
12005;SDS011;6062;47.294;12.182;2023-03-08T00:36:18;14.87;;;8.50;;
12005;SDS011;6062;47.294;12.182;2023-03-08T00:38:45;14.87;;;8.37;;
12005;SDS011;6062;47.294;12.182;2023-03-08T00:41:12;15.10;;;8.37;;
12005;SDS011;6062;47.294;12.182;2023-03-08T00:43:38;15.87;;;8.23;;
12005;SDS011;6062;47.294;12.182;2023-03-08T00:46:06;16.60;;;8.37;;
12005;SDS011;6062;47.294;12.182;2023-03-08T00:48:32;15.03;;;8.20;;
12005;SDS011;6062;47.294;12.182;2023-03-08T00:50:58;17.00;;;9.10;;
12005;SDS011;6062;47.294;12.182;2023-03-08T00:53:23;14.63;;;8.50;;
12005;SDS011;6062;47.294;12.182;2023-03-08T00:55:50;15.10;;;7.50;;
12005;SDS011;6062;47.294;12.182;2023-03-08T00:58:19;14.23;;;7.47;;
12005;SDS011;6062;47.294;12.182;2023-03-08T01:00:46;11.67;;;6.63;;
12005;SDS011;6062;47.294;12.182;2023-03-08T01:03:12;13.70;;;7.87;;
12005;SDS011;6062;47.294;12.182;2023-03-08T01:05:39;15.33;;;7.40;;
12005;SDS011;6062;47.294;12.182;2023-03-08T01:08:14;13.93;;;7.50;;
12005;SDS011;6062;47.294;12.182;2023-03-08T01:10:51;13.07;;;7.97;;
12005;SDS011;6062;47.294;12.182;2023-03-08T01:13:23;22.27;;;8.43;;
12005;SDS011;6062;47.294;12.182;2023-03-08T01:15:55;22.03;;;7.40;;
12005;SDS011;6062;47.294;12.182;2023-03-08T01:18:21;47.50;;;8.20;;
12005;SDS011;6062;47.294;12.182;2023-03-08T01:20:57;15.60;;;6.90;;
12005;SDS011;6062;47.294;12.182;2023-03-08T01:23:28;30.47;;;7.30;;
12005;SDS011;6062;47.294;12.182;2023-03-08T01:26:01;33.47;;;8.13;;
12005;SDS011;6062;47.294;12.182;2023-03-08T01:28:35;109.57;;;10.17;;
12005;SDS011;6062;47.294;12.182;2023-03-08T01:31:04;40.03;;;7.70;;
12005;SDS011;6062;47.294;12.182;2023-03-08T01:33:42;22.80;;;7.30;;
12005;SDS011;6062;47.294;12.182;2023-03-08T01:36:09;12.67;;;7.03;;
12005;SDS011;6062;47.294;12.182;2023-03-08T01:38:39;10.63;;;6.30;;
12005;SDS011;6062;47.294;12.182;2023-03-08T01:41:06;14.00;;;7.07;;
12005;SDS011;6062;47.294;12.182;2023-03-08T01:43:38;13.70;;;6.70;;
12005;SDS011;6062;47.294;12.182;2023-03-08T01:46:23;16.50;;;6.37;;
12005;SDS011;6062;47.294;12.182;2023-03-08T01:49:09;11.10;;;6.77;;
12005;SDS011;6062;47.294;12.182;2023-03-08T01:55:07;14.23;;;7.03;;
12005;SDS011;6062;47.294;12.182;2023-03-08T01:57:38;12.63;;;7.13;;
12005;SDS011;6062;47.294;12.182;2023-03-08T02:00:13;11.40;;;5.90;;
12005;SDS011;6062;47.294;12.182;2023-03-08T02:03:00;9.80;;;6.03;;
12005;SDS011;6062;47.294;12.182;2023-03-08T02:05:33;11.63;;;7.20;;
12005;SDS011;6062;47.294;12.182;2023-03-08T02:08:02;15.40;;;7.30;;
12005;SDS011;6062;47.294;12.182;2023-03-08T02:10:28;17.17;;;8.23;;
12005;SDS011;6062;47.294;12.182;2023-03-08T02:12:55;14.90;;;8.03;;
12005;SDS011;6062;47.294;12.182;2023-03-08T02:15:21;12.37;;;6.87;;
12005;SDS011;6062;47.294;12.182;2023-03-08T02:17:47;14.67;;;8.13;;
12005;SDS011;6062;47.294;12.182;2023-03-08T02:22:43;14.83;;;7.47;;
12005;SDS011;6062;47.294;12.182;2023-03-08T02:25:17;17.03;;;8.83;;
12005;SDS011;6062;47.294;12.182;2023-03-08T02:27:50;14.93;;;7.80;;
12005;SDS011;6062;47.294;12.182;2023-03-08T02:30:22;14.93;;;7.83;;
12005;SDS011;6062;47.294;12.182;2023-03-08T02:32:50;15.30;;;8.73;;
12005;SDS011;6062;47.294;12.182;2023-03-08T02:35:16;15.77;;;8.90;;
12005;SDS011;6062;47.294;12.182;2023-03-08T02:37:42;15.63;;;8.73;;
12005;SDS011;6062;47.294;12.182;2023-03-08T02:40:09;15.10;;;8.53;;
12005;SDS011;6062;47.294;12.182;2023-03-08T02:42:36;16.87;;;9.23;;
12005;SDS011;6062;47.294;12.182;2023-03-08T02:45:02;15.70;;;8.53;;
12005;SDS011;6062;47.294;12.182;2023-03-08T02:47:28;17.77;;;9.30;;
12005;SDS011;6062;47.294;12.182;2023-03-08T02:49:53;16.47;;;8.67;;
12005;SDS011;6062;47.294;12.182;2023-03-08T02:52:19;17.23;;;8.47;;
12005;SDS011;6062;47.294;12.182;2023-03-08T02:54:45;16.90;;;8.43;;
12005;SDS011;6062;47.294;12.182;2023-03-08T02:57:10;14.20;;;7.77;;
12005;SDS011;6062;47.294;12.182;2023-03-08T02:59:36;18.23;;;8.93;;
12005;SDS011;6062;47.294;12.182;2023-03-08T03:02:02;15.40;;;7.67;;
12005;SDS011;6062;47.294;12.182;2023-03-08T03:04:31;14.77;;;7.37;;
12005;SDS011;6062;47.294;12.182;2023-03-08T03:06:58;22.13;;;7.97;;
12005;SDS011;6062;47.294;12.182;2023-03-08T03:09:24;14.73;;;7.47;;
12005;SDS011;6062;47.294;12.182;2023-03-08T03:11:51;29.37;;;9.20;;
12005;SDS011;6062;47.294;12.182;2023-03-08T03:14:17;19.50;;;9.30;;
12005;SDS011;6062;47.294;12.182;2023-03-08T03:16:43;24.03;;;8.87;;
12005;SDS011;6062;47.294;12.182;2023-03-08T03:19:09;20.53;;;9.10;;
12005;SDS011;6062;47.294;12.182;2023-03-08T03:21:36;29.70;;;9.83;;
12005;SDS011;6062;47.294;12.182;2023-03-08T03:24:03;26.50;;;9.57;;
12005;SDS011;6062;47.294;12.182;2023-03-08T03:26:29;16.53;;;8.60;;
12005;SDS011;6062;47.294;12.182;2023-03-08T03:28:55;14.63;;;7.73;;
12005;SDS011;6062;47.294;12.182;2023-03-08T03:31:23;20.33;;;7.57;;
12005;SDS011;6062;47.294;12.182;2023-03-08T03:33:50;21.60;;;7.67;;
12005;SDS011;6062;47.294;12.182;2023-03-08T03:36:17;20.83;;;8.60;;
12005;SDS011;6062;47.294;12.182;2023-03-08T03:38:45;16.37;;;8.33;;
12005;SDS011;6062;47.294;12.182;2023-03-08T03:41:14;15.20;;;8.90;;
12005;SDS011;6062;47.294;12.182;2023-03-08T03:43:43;14.87;;;8.40;;
12005;SDS011;6062;47.294;12.182;2023-03-08T03:46:11;16.67;;;8.67;;
12005;SDS011;6062;47.294;12.182;2023-03-08T03:48:39;21.87;;;9.13;;
12005;SDS011;6062;47.294;12.182;2023-03-08T03:51:08;13.80;;;8.00;;
12005;SDS011;6062;47.294;12.182;2023-03-08T03:53:36;15.13;;;7.87;;
12005;SDS011;6062;47.294;12.182;2023-03-08T03:56:04;26.30;;;9.80;;
12005;SDS011;6062;47.294;12.182;2023-03-08T03:58:42;14.90;;;7.83;;
12005;SDS011;6062;47.294;12.182;2023-03-08T04:01:25;16.80;;;8.53;;
12005;SDS011;6062;47.294;12.182;2023-03-08T04:03:54;15.37;;;8.97;;
12005;SDS011;6062;47.294;12.182;2023-03-08T04:06:28;13.80;;;8.00;;
12005;SDS011;6062;47.294;12.182;2023-03-08T04:08:58;16.87;;;8.57;;
12005;SDS011;6062;47.294;12.182;2023-03-08T04:11:36;17.80;;;8.43;;
12005;SDS011;6062;47.294;12.182;2023-03-08T04:14:03;13.97;;;7.77;;
12005;SDS011;6062;47.294;12.182;2023-03-08T04:16:31;12.80;;;7.77;;
12005;SDS011;6062;47.294;12.182;2023-03-08T04:19:01;17.00;;;8.80;;
12005;SDS011;6062;47.294;12.182;2023-03-08T04:21:31;12.07;;;7.20;;
12005;SDS011;6062;47.294;12.182;2023-03-08T04:23:57;11.00;;;6.60;;
12005;SDS011;6062;47.294;12.182;2023-03-08T04:26:24;9.17;;;5.83;;
12005;SDS011;6062;47.294;12.182;2023-03-08T04:28:50;12.37;;;7.23;;
12005;SDS011;6062;47.294;12.182;2023-03-08T04:31:18;10.93;;;6.00;;
12005;SDS011;6062;47.294;12.182;2023-03-08T04:33:45;10.43;;;6.20;;
12005;SDS011;6062;47.294;12.182;2023-03-08T04:36:12;10.80;;;6.50;;
12005;SDS011;6062;47.294;12.182;2023-03-08T04:38:39;9.57;;;5.57;;
12005;SDS011;6062;47.294;12.182;2023-03-08T04:41:05;10.07;;;5.37;;
12005;SDS011;6062;47.294;12.182;2023-03-08T04:43:47;10.40;;;5.43;;
12005;SDS011;6062;47.294;12.182;2023-03-08T04:46:20;9.90;;;5.77;;
12005;SDS011;6062;47.294;12.182;2023-03-08T04:48:49;8.93;;;5.27;;
12005;SDS011;6062;47.294;12.182;2023-03-08T04:51:19;8.77;;;5.70;;
12005;SDS011;6062;47.294;12.182;2023-03-08T04:53:47;8.17;;;5.67;;
12005;SDS011;6062;47.294;12.182;2023-03-08T04:56:14;8.73;;;5.23;;
12005;SDS011;6062;47.294;12.182;2023-03-08T04:58:41;11.23;;;5.80;;
12005;SDS011;6062;47.294;12.182;2023-03-08T05:01:16;9.23;;;5.37;;
12005;SDS011;6062;47.294;12.182;2023-03-08T05:03:46;9.83;;;5.23;;
12005;SDS011;6062;47.294;12.182;2023-03-08T05:06:16;8.87;;;5.77;;
12005;SDS011;6062;47.294;12.182;2023-03-08T05:08:43;8.83;;;5.40;;
12005;SDS011;6062;47.294;12.182;2023-03-08T05:11:10;8.63;;;5.73;;
12005;SDS011;6062;47.294;12.182;2023-03-08T05:13:45;8.47;;;5.23;;
12005;SDS011;6062;47.294;12.182;2023-03-08T05:16:11;9.23;;;4.93;;
12005;SDS011;6062;47.294;12.182;2023-03-08T05:18:37;7.90;;;5.30;;
12005;SDS011;6062;47.294;12.182;2023-03-08T05:21:04;8.83;;;5.17;;
12005;SDS011;6062;47.294;12.182;2023-03-08T05:23:34;8.80;;;5.20;;
12005;SDS011;6062;47.294;12.182;2023-03-08T05:26:00;9.00;;;5.10;;
12005;SDS011;6062;47.294;12.182;2023-03-08T05:28:28;8.00;;;4.97;;
12005;SDS011;6062;47.294;12.182;2023-03-08T05:31:04;7.73;;;4.90;;
12005;SDS011;6062;47.294;12.182;2023-03-08T05:33:39;8.87;;;5.30;;
12005;SDS011;6062;47.294;12.182;2023-03-08T05:36:07;8.23;;;4.83;;
12005;SDS011;6062;47.294;12.182;2023-03-08T05:38:34;6.70;;;4.30;;
12005;SDS011;6062;47.294;12.182;2023-03-08T05:41:00;9.57;;;5.17;;
12005;SDS011;6062;47.294;12.182;2023-03-08T05:43:29;7.90;;;4.67;;
12005;SDS011;6062;47.294;12.182;2023-03-08T05:45:59;7.87;;;4.57;;
12005;SDS011;6062;47.294;12.182;2023-03-08T05:48:29;8.07;;;5.00;;
12005;SDS011;6062;47.294;12.182;2023-03-08T05:50:57;8.57;;;4.83;;
12005;SDS011;6062;47.294;12.182;2023-03-08T05:53:23;8.30;;;5.33;;
12005;SDS011;6062;47.294;12.182;2023-03-08T05:55:49;8.27;;;5.57;;
12005;SDS011;6062;47.294;12.182;2023-03-08T05:58:15;9.33;;;4.80;;
12005;SDS011;6062;47.294;12.182;2023-03-08T06:00:41;9.73;;;5.80;;
12005;SDS011;6062;47.294;12.182;2023-03-08T06:03:07;10.00;;;5.43;;
12005;SDS011;6062;47.294;12.182;2023-03-08T06:05:33;8.03;;;4.77;;
12005;SDS011;6062;47.294;12.182;2023-03-08T06:07:59;9.07;;;5.37;;
12005;SDS011;6062;47.294;12.182;2023-03-08T06:10:25;9.00;;;5.60;;
12005;SDS011;6062;47.294;12.182;2023-03-08T06:12:51;10.50;;;4.57;;
12005;SDS011;6062;47.294;12.182;2023-03-08T06:15:16;8.00;;;5.43;;
12005;SDS011;6062;47.294;12.182;2023-03-08T06:17:42;8.53;;;5.43;;
12005;SDS011;6062;47.294;12.182;2023-03-08T06:20:08;9.13;;;5.97;;
12005;SDS011;6062;47.294;12.182;2023-03-08T06:22:35;7.67;;;5.30;;
12005;SDS011;6062;47.294;12.182;2023-03-08T06:25:01;7.77;;;4.83;;
12005;SDS011;6062;47.294;12.182;2023-03-08T06:27:27;8.53;;;5.20;;
12005;SDS011;6062;47.294;12.182;2023-03-08T06:29:53;8.40;;;5.27;;
12005;SDS011;6062;47.294;12.182;2023-03-08T06:32:19;7.20;;;5.00;;
12005;SDS011;6062;47.294;12.182;2023-03-08T06:34:45;7.90;;;5.20;;
12005;SDS011;6062;47.294;12.182;2023-03-08T06:37:11;9.60;;;5.17;;
12005;SDS011;6062;47.294;12.182;2023-03-08T06:39:38;6.97;;;4.97;;
12005;SDS011;6062;47.294;12.182;2023-03-08T06:42:03;6.90;;;5.00;;
12005;SDS011;6062;47.294;12.182;2023-03-08T06:44:29;8.90;;;5.20;;
12005;SDS011;6062;47.294;12.182;2023-03-08T06:46:55;7.93;;;5.17;;
12005;SDS011;6062;47.294;12.182;2023-03-08T06:49:21;10.13;;;5.57;;
12005;SDS011;6062;47.294;12.182;2023-03-08T06:51:48;9.43;;;5.80;;
12005;SDS011;6062;47.294;12.182;2023-03-08T06:54:13;7.33;;;5.10;;
12005;SDS011;6062;47.294;12.182;2023-03-08T06:56:44;9.07;;;5.60;;
12005;SDS011;6062;47.294;12.182;2023-03-08T06:59:12;7.20;;;4.67;;
12005;SDS011;6062;47.294;12.182;2023-03-08T07:01:38;7.87;;;5.20;;
12005;SDS011;6062;47.294;12.182;2023-03-08T07:04:04;9.17;;;5.70;;
12005;SDS011;6062;47.294;12.182;2023-03-08T07:06:31;9.53;;;5.33;;
12005;SDS011;6062;47.294;12.182;2023-03-08T07:08:57;8.03;;;5.07;;
12005;SDS011;6062;47.294;12.182;2023-03-08T07:11:22;9.50;;;5.47;;
12005;SDS011;6062;47.294;12.182;2023-03-08T07:13:50;7.70;;;5.60;;
12005;SDS011;6062;47.294;12.182;2023-03-08T07:16:16;7.90;;;5.33;;
12005;SDS011;6062;47.294;12.182;2023-03-08T07:18:42;6.83;;;4.87;;
12005;SDS011;6062;47.294;12.182;2023-03-08T07:21:08;7.30;;;5.20;;
12005;SDS011;6062;47.294;12.182;2023-03-08T07:23:34;6.90;;;4.97;;
12005;SDS011;6062;47.294;12.182;2023-03-08T07:26:04;7.97;;;5.50;;
12005;SDS011;6062;47.294;12.182;2023-03-08T07:28:31;9.00;;;5.53;;
12005;SDS011;6062;47.294;12.182;2023-03-08T07:30:57;8.20;;;5.53;;
12005;SDS011;6062;47.294;12.182;2023-03-08T07:33:22;9.07;;;5.63;;
12005;SDS011;6062;47.294;12.182;2023-03-08T07:35:48;6.90;;;5.22;;
12005;SDS011;6062;47.294;12.182;2023-03-08T07:38:14;8.40;;;5.10;;
12005;SDS011;6062;47.294;12.182;2023-03-08T07:40:41;7.45;;;5.20;;
12005;SDS011;6062;47.294;12.182;2023-03-08T07:43:07;9.20;;;5.30;;
12005;SDS011;6062;47.294;12.182;2023-03-08T07:45:33;8.32;;;5.50;;
12005;SDS011;6062;47.294;12.182;2023-03-08T07:47:59;7.07;;;4.95;;
12005;SDS011;6062;47.294;12.182;2023-03-08T07:50:24;8.52;;;5.65;;
12005;SDS011;6062;47.294;12.182;2023-03-08T07:52:50;7.82;;;5.10;;
12005;SDS011;6062;47.294;12.182;2023-03-08T07:55:16;7.10;;;5.00;;
12005;SDS011;6062;47.294;12.182;2023-03-08T07:57:42;9.10;;;5.03;;
12005;SDS011;6062;47.294;12.182;2023-03-08T08:00:07;7.45;;;5.45;;
12005;SDS011;6062;47.294;12.182;2023-03-08T08:02:35;8.85;;;5.15;;
12005;SDS011;6062;47.294;12.182;2023-03-08T08:05:01;7.40;;;5.47;;
12005;SDS011;6062;47.294;12.182;2023-03-08T08:07:28;9.30;;;5.25;;
12005;SDS011;6062;47.294;12.182;2023-03-08T08:09:55;7.28;;;4.93;;
12005;SDS011;6062;47.294;12.182;2023-03-08T08:12:20;10.80;;;5.47;;
12005;SDS011;6062;47.294;12.182;2023-03-08T08:14:47;7.78;;;5.57;;
12005;SDS011;6062;47.294;12.182;2023-03-08T08:17:17;9.05;;;5.35;;
12005;SDS011;6062;47.294;12.182;2023-03-08T08:19:44;6.18;;;4.72;;
12005;SDS011;6062;47.294;12.182;2023-03-08T08:22:10;7.10;;;4.80;;
12005;SDS011;6062;47.294;12.182;2023-03-08T08:24:36;7.20;;;4.68;;
12005;SDS011;6062;47.294;12.182;2023-03-08T08:27:01;6.70;;;4.88;;
12005;SDS011;6062;47.294;12.182;2023-03-08T08:29:27;5.68;;;4.30;;
12005;SDS011;6062;47.294;12.182;2023-03-08T08:31:53;6.22;;;4.40;;
12005;SDS011;6062;47.294;12.182;2023-03-08T08:34:20;6.70;;;4.55;;
12005;SDS011;6062;47.294;12.182;2023-03-08T08:36:45;8.00;;;4.20;;
12005;SDS011;6062;47.294;12.182;2023-03-08T08:39:12;7.00;;;4.15;;
12005;SDS011;6062;47.294;12.182;2023-03-08T08:41:37;5.05;;;3.80;;
12005;SDS011;6062;47.294;12.182;2023-03-08T08:44:03;7.00;;;4.90;;
12005;SDS011;6062;47.294;12.182;2023-03-08T08:46:29;8.52;;;4.57;;
12005;SDS011;6062;47.294;12.182;2023-03-08T08:48:58;9.65;;;5.18;;
12005;SDS011;6062;47.294;12.182;2023-03-08T08:51:24;7.43;;;5.00;;
12005;SDS011;6062;47.294;12.182;2023-03-08T08:53:50;6.72;;;4.68;;
12005;SDS011;6062;47.294;12.182;2023-03-08T08:56:17;10.10;;;4.68;;
12005;SDS011;6062;47.294;12.182;2023-03-08T08:58:46;6.13;;;4.18;;
12005;SDS011;6062;47.294;12.182;2023-03-08T09:01:16;6.70;;;4.30;;
12005;SDS011;6062;47.294;12.182;2023-03-08T09:03:49;6.05;;;4.07;;
12005;SDS011;6062;47.294;12.182;2023-03-08T09:21:48;5.55;;;3.67;;
12005;SDS011;6062;47.294;12.182;2023-03-08T09:24:14;3.95;;;3.38;;
12005;SDS011;6062;47.294;12.182;2023-03-08T09:26:41;4.82;;;3.50;;
12005;SDS011;6062;47.294;12.182;2023-03-08T09:29:06;3.78;;;3.25;;
12005;SDS011;6062;47.294;12.182;2023-03-08T09:31:33;4.88;;;3.13;;
12005;SDS011;6062;47.294;12.182;2023-03-08T09:34:01;5.85;;;3.67;;
12005;SDS011;6062;47.294;12.182;2023-03-08T09:36:29;5.47;;;3.35;;
12005;SDS011;6062;47.294;12.182;2023-03-08T09:38:55;6.05;;;3.40;;
12005;SDS011;6062;47.294;12.182;2023-03-08T09:46:33;4.70;;;3.55;;
12005;SDS011;6062;47.294;12.182;2023-03-08T09:49:04;4.00;;;3.10;;
12005;SDS011;6062;47.294;12.182;2023-03-08T09:51:39;4.43;;;3.25;;
12005;SDS011;6062;47.294;12.182;2023-03-08T09:54:15;4.38;;;3.20;;
12005;SDS011;6062;47.294;12.182;2023-03-08T09:56:50;4.95;;;3.20;;
12005;SDS011;6062;47.294;12.182;2023-03-08T10:08:10;5.72;;;3.47;;
12005;SDS011;6062;47.294;12.182;2023-03-08T10:11:29;4.80;;;3.13;;
12005;SDS011;6062;47.294;12.182;2023-03-08T10:14:24;3.15;;;2.45;;
12005;SDS011;6062;47.294;12.182;2023-03-08T10:17:07;4.05;;;2.90;;
12005;SDS011;6062;47.294;12.182;2023-03-08T10:22:25;4.28;;;2.90;;
12005;SDS011;6062;47.294;12.182;2023-03-08T10:24:57;3.70;;;2.60;;
12005;SDS011;6062;47.294;12.182;2023-03-08T10:27:50;3.50;;;2.47;;
12005;SDS011;6062;47.294;12.182;2023-03-08T10:30:21;4.38;;;2.72;;
12005;SDS011;6062;47.294;12.182;2023-03-08T10:32:52;3.05;;;2.58;;
12005;SDS011;6062;47.294;12.182;2023-03-08T10:35:36;5.05;;;3.08;;
12005;SDS011;6062;47.294;12.182;2023-03-08T10:38:36;4.75;;;2.90;;
12005;SDS011;6062;47.294;12.182;2023-03-08T10:43:39;3.60;;;2.58;;
12005;SDS011;6062;47.294;12.182;2023-03-08T10:46:12;3.22;;;2.33;;
12005;SDS011;6062;47.294;12.182;2023-03-08T10:48:43;2.95;;;2.63;;
12005;SDS011;6062;47.294;12.182;2023-03-08T10:51:18;4.22;;;2.65;;
12005;SDS011;6062;47.294;12.182;2023-03-08T10:53:53;4.95;;;2.72;;
12005;SDS011;6062;47.294;12.182;2023-03-08T10:56:26;3.85;;;2.67;;
12005;SDS011;6062;47.294;12.182;2023-03-08T10:59:02;2.22;;;2.03;;
12005;SDS011;6062;47.294;12.182;2023-03-08T11:01:34;3.05;;;1.92;;
12005;SDS011;6062;47.294;12.182;2023-03-08T11:04:17;3.58;;;2.30;;
12005;SDS011;6062;47.294;12.182;2023-03-08T11:06:45;3.28;;;1.90;;
12005;SDS011;6062;47.294;12.182;2023-03-08T11:09:25;1.50;;;1.30;;
12005;SDS011;6062;47.294;12.182;2023-03-08T11:11:58;2.05;;;1.40;;
12005;SDS011;6062;47.294;12.182;2023-03-08T11:14:25;1.48;;;1.30;;
12005;SDS011;6062;47.294;12.182;2023-03-08T11:17:04;2.83;;;1.70;;
12005;SDS011;6062;47.294;12.182;2023-03-08T11:26:03;1.92;;;1.50;;
12005;SDS011;6062;47.294;12.182;2023-03-08T11:28:53;3.55;;;1.80;;
12005;SDS011;6062;47.294;12.182;2023-03-08T11:31:42;1.70;;;1.20;;
12005;SDS011;6062;47.294;12.182;2023-03-08T11:37:04;2.42;;;1.25;;
12005;SDS011;6062;47.294;12.182;2023-03-08T11:42:42;2.03;;;1.52;;
12005;SDS011;6062;47.294;12.182;2023-03-08T11:45:43;2.63;;;1.80;;
12005;SDS011;6062;47.294;12.182;2023-03-08T11:55:16;1.30;;;1.10;;
12005;SDS011;6062;47.294;12.182;2023-03-08T11:58:41;2.17;;;1.25;;
12005;SDS011;6062;47.294;12.182;2023-03-08T12:01:16;1.70;;;1.23;;
12005;SDS011;6062;47.294;12.182;2023-03-08T12:03:52;2.70;;;1.58;;
12005;SDS011;6062;47.294;12.182;2023-03-08T12:06:24;1.67;;;1.20;;
12005;SDS011;6062;47.294;12.182;2023-03-08T12:14:03;1.85;;;1.33;;
12005;SDS011;6062;47.294;12.182;2023-03-08T12:17:04;2.08;;;1.40;;
12005;SDS011;6062;47.294;12.182;2023-03-08T12:19:42;2.42;;;1.67;;
12005;SDS011;6062;47.294;12.182;2023-03-08T12:25:29;2.55;;;1.45;;
12005;SDS011;6062;47.294;12.182;2023-03-08T12:28:00;1.80;;;1.30;;
12005;SDS011;6062;47.294;12.182;2023-03-08T12:30:53;1.80;;;1.50;;
12005;SDS011;6062;47.294;12.182;2023-03-08T12:33:38;1.20;;;1.10;;
12005;SDS011;6062;47.294;12.182;2023-03-08T12:36:04;1.90;;;1.50;;
12005;SDS011;6062;47.294;12.182;2023-03-08T12:41:04;1.55;;;1.20;;
12005;SDS011;6062;47.294;12.182;2023-03-08T12:43:45;2.35;;;1.30;;
12005;SDS011;6062;47.294;12.182;2023-03-08T12:46:10;2.05;;;1.40;;
12005;SDS011;6062;47.294;12.182;2023-03-08T12:56:34;2.20;;;1.50;;
12005;SDS011;6062;47.294;12.182;2023-03-08T13:01:44;3.08;;;1.60;;
12005;SDS011;6062;47.294;12.182;2023-03-08T13:14:44;2.08;;;1.50;;
12005;SDS011;6062;47.294;12.182;2023-03-08T13:19:53;2.00;;;1.42;;
12005;SDS011;6062;47.294;12.182;2023-03-08T13:22:24;1.67;;;1.38;;
12005;SDS011;6062;47.294;12.182;2023-03-08T13:28:21;2.00;;;1.55;;
12005;SDS011;6062;47.294;12.182;2023-03-08T13:30:56;1.40;;;1.27;;
12005;SDS011;6062;47.294;12.182;2023-03-08T13:33:27;1.70;;;1.48;;
12005;SDS011;6062;47.294;12.182;2023-03-08T13:36:20;1.75;;;1.50;;
12005;SDS011;6062;47.294;12.182;2023-03-08T13:38:57;2.47;;;1.60;;
12005;SDS011;6062;47.294;12.182;2023-03-08T13:44:13;2.42;;;1.60;;
12005;SDS011;6062;47.294;12.182;2023-03-08T13:46:41;2.10;;;1.60;;
12005;SDS011;6062;47.294;12.182;2023-03-08T13:49:25;2.00;;;1.52;;
12005;SDS011;6062;47.294;12.182;2023-03-08T13:52:23;2.35;;;1.80;;
12005;SDS011;6062;47.294;12.182;2023-03-08T13:54:58;2.22;;;1.75;;
12005;SDS011;6062;47.294;12.182;2023-03-08T13:57:30;2.25;;;1.63;;
12005;SDS011;6062;47.294;12.182;2023-03-08T14:00:15;4.15;;;1.80;;
12005;SDS011;6062;47.294;12.182;2023-03-08T14:02:49;2.05;;;1.63;;
12005;SDS011;6062;47.294;12.182;2023-03-08T14:05:20;2.00;;;1.63;;
12005;SDS011;6062;47.294;12.182;2023-03-08T14:08:05;3.28;;;2.00;;
12005;SDS011;6062;47.294;12.182;2023-03-08T14:10:44;3.20;;;1.90;;
12005;SDS011;6062;47.294;12.182;2023-03-08T14:16:00;2.80;;;2.08;;
12005;SDS011;6062;47.294;12.182;2023-03-08T14:18:37;3.35;;;2.40;;
12005;SDS011;6062;47.294;12.182;2023-03-08T14:21:14;3.50;;;2.50;;
12005;SDS011;6062;47.294;12.182;2023-03-08T14:23:53;3.42;;;2.50;;
12005;SDS011;6062;47.294;12.182;2023-03-08T14:29:11;4.22;;;2.38;;
12005;SDS011;6062;47.294;12.182;2023-03-08T14:32:04;2.50;;;2.00;;
12005;SDS011;6062;47.294;12.182;2023-03-08T14:35:02;5.60;;;2.60;;
12005;SDS011;6062;47.294;12.182;2023-03-08T14:37:44;3.28;;;2.30;;
12005;SDS011;6062;47.294;12.182;2023-03-08T14:43:00;2.95;;;2.15;;
12005;SDS011;6062;47.294;12.182;2023-03-08T14:45:33;2.60;;;2.20;;
12005;SDS011;6062;47.294;12.182;2023-03-08T14:50:50;3.50;;;2.40;;
12005;SDS011;6062;47.294;12.182;2023-03-08T14:53:33;4.15;;;2.53;;
12005;SDS011;6062;47.294;12.182;2023-03-08T14:56:09;3.25;;;2.33;;
12005;SDS011;6062;47.294;12.182;2023-03-08T14:58:39;4.60;;;2.70;;
12005;SDS011;6062;47.294;12.182;2023-03-08T15:01:08;3.80;;;2.50;;
12005;SDS011;6062;47.294;12.182;2023-03-08T15:03:34;3.45;;;2.45;;
12005;SDS011;6062;47.294;12.182;2023-03-08T15:06:00;3.05;;;2.25;;
12005;SDS011;6062;47.294;12.182;2023-03-08T15:08:40;3.35;;;2.47;;
12005;SDS011;6062;47.294;12.182;2023-03-08T15:11:06;2.55;;;2.20;;
12005;SDS011;6062;47.294;12.182;2023-03-08T15:13:32;4.90;;;2.92;;
12005;SDS011;6062;47.294;12.182;2023-03-08T15:15:58;4.70;;;2.70;;
12005;SDS011;6062;47.294;12.182;2023-03-08T15:18:23;6.30;;;3.22;;
12005;SDS011;6062;47.294;12.182;2023-03-08T15:20:49;4.10;;;3.00;;
12005;SDS011;6062;47.294;12.182;2023-03-08T15:23:32;3.55;;;2.75;;
12005;SDS011;6062;47.294;12.182;2023-03-08T15:26:03;4.45;;;2.53;;
12005;SDS011;6062;47.294;12.182;2023-03-08T15:28:31;3.67;;;2.70;;
12005;SDS011;6062;47.294;12.182;2023-03-08T15:30:56;3.33;;;2.75;;
12005;SDS011;6062;47.294;12.182;2023-03-08T15:33:22;4.20;;;2.83;;
12005;SDS011;6062;47.294;12.182;2023-03-08T15:35:48;4.53;;;2.92;;
12005;SDS011;6062;47.294;12.182;2023-03-08T15:38:15;4.60;;;3.08;;
12005;SDS011;6062;47.294;12.182;2023-03-08T15:40:43;4.53;;;2.78;;
12005;SDS011;6062;47.294;12.182;2023-03-08T15:43:09;4.05;;;2.90;;
12005;SDS011;6062;47.294;12.182;2023-03-08T15:45:35;4.15;;;2.65;;
12005;SDS011;6062;47.294;12.182;2023-03-08T15:50:36;4.93;;;2.63;;
12005;SDS011;6062;47.294;12.182;2023-03-08T15:53:03;4.80;;;2.95;;
12005;SDS011;6062;47.294;12.182;2023-03-08T15:55:29;4.22;;;2.80;;
12005;SDS011;6062;47.294;12.182;2023-03-08T15:57:56;4.50;;;2.67;;
12005;SDS011;6062;47.294;12.182;2023-03-08T16:00:23;4.15;;;2.50;;
12005;SDS011;6062;47.294;12.182;2023-03-08T16:02:49;3.15;;;2.50;;
12005;SDS011;6062;47.294;12.182;2023-03-08T16:05:17;4.20;;;2.40;;
12005;SDS011;6062;47.294;12.182;2023-03-08T16:07:46;4.05;;;2.33;;
12005;SDS011;6062;47.294;12.182;2023-03-08T16:10:17;3.17;;;2.10;;
12005;SDS011;6062;47.294;12.182;2023-03-08T16:12:42;4.22;;;2.70;;
12005;SDS011;6062;47.294;12.182;2023-03-08T16:15:08;3.28;;;2.45;;
12005;SDS011;6062;47.294;12.182;2023-03-08T16:17:34;5.18;;;2.85;;
12005;SDS011;6062;47.294;12.182;2023-03-08T16:20:01;3.75;;;3.15;;
12005;SDS011;6062;47.294;12.182;2023-03-08T16:22:30;4.28;;;2.88;;
12005;SDS011;6062;47.294;12.182;2023-03-08T16:24:57;5.45;;;2.88;;
12005;SDS011;6062;47.294;12.182;2023-03-08T16:27:23;4.60;;;2.85;;
12005;SDS011;6062;47.294;12.182;2023-03-08T16:29:52;5.57;;;2.72;;
12005;SDS011;6062;47.294;12.182;2023-03-08T16:32:17;4.53;;;2.90;;
12005;SDS011;6062;47.294;12.182;2023-03-08T16:34:44;4.38;;;2.78;;
12005;SDS011;6062;47.294;12.182;2023-03-08T16:37:18;3.47;;;2.67;;
12005;SDS011;6062;47.294;12.182;2023-03-08T16:39:47;4.95;;;2.95;;
12005;SDS011;6062;47.294;12.182;2023-03-08T16:42:14;6.32;;;3.55;;
12005;SDS011;6062;47.294;12.182;2023-03-08T16:44:40;8.48;;;3.03;;
12005;SDS011;6062;47.294;12.182;2023-03-08T16:47:12;5.13;;;3.58;;
12005;SDS011;6062;47.294;12.182;2023-03-08T16:49:38;4.80;;;2.72;;
12005;SDS011;6062;47.294;12.182;2023-03-08T16:52:03;5.40;;;3.53;;
12005;SDS011;6062;47.294;12.182;2023-03-08T16:54:29;5.38;;;3.30;;
12005;SDS011;6062;47.294;12.182;2023-03-08T16:56:55;4.07;;;3.20;;